sensor_id;sensor_type;location;lat;lon;timestamp;pressure;altitude;pressure_sealevel;temperature;humidity
6393;BME280;3229;42.674;23.282;2023-04-09T00:01:02;94802.44;;;11.42;63.36
6393;BME280;3229;42.674;23.282;2023-04-09T00:03:28;94812.66;;;11.42;63.44
6393;BME280;3229;42.674;23.282;2023-04-09T00:05:57;94797.34;;;11.33;63.54
6393;BME280;3229;42.674;23.282;2023-04-09T00:08:24;94814.41;;;11.42;63.34
6393;BME280;3229;42.674;23.282;2023-04-09T00:10:51;94817.78;;;11.42;63.31
6393;BME280;3229;42.674;23.282;2023-04-09T00:13:18;94811.06;;;11.41;63.45
6393;BME280;3229;42.674;23.282;2023-04-09T00:15:45;94805.13;;;11.31;63.58
6393;BME280;3229;42.674;23.282;2023-04-09T00:18:12;94816.84;;;11.43;63.66
6393;BME280;3229;42.674;23.282;2023-04-09T00:20:39;94819.41;;;11.43;63.48
6393;BME280;3229;42.674;23.282;2023-04-09T00:23:07;94814.97;;;11.45;63.38
6393;BME280;3229;42.674;23.282;2023-04-09T00:25:34;94817.38;;;11.47;63.46
6393;BME280;3229;42.674;23.282;2023-04-09T00:28:01;94812.41;;;11.45;63.64
6393;BME280;3229;42.674;23.282;2023-04-09T00:30:28;94818.16;;;11.47;63.51
6393;BME280;3229;42.674;23.282;2023-04-09T00:32:55;94817.09;;;11.50;63.46
6393;BME280;3229;42.674;23.282;2023-04-09T00:35:22;94824.63;;;11.51;63.40
6393;BME280;3229;42.674;23.282;2023-04-09T00:37:48;94817.22;;;11.48;63.61
6393;BME280;3229;42.674;23.282;2023-04-09T00:40:17;94827.06;;;11.53;63.52
6393;BME280;3229;42.674;23.282;2023-04-09T00:42:44;94815.88;;;11.54;63.64
6393;BME280;3229;42.674;23.282;2023-04-09T00:45:11;94821.00;;;11.54;63.71
6393;BME280;3229;42.674;23.282;2023-04-09T00:47:38;94822.59;;;11.55;63.52
6393;BME280;3229;42.674;23.282;2023-04-09T00:50:05;94815.88;;;11.54;63.42
6393;BME280;3229;42.674;23.282;2023-04-09T00:52:32;94819.22;;;11.54;63.62
6393;BME280;3229;42.674;23.282;2023-04-09T00:55:00;94794.75;;;11.42;63.55
6393;BME280;3229;42.674;23.282;2023-04-09T00:57:29;94817.31;;;11.56;63.38
6393;BME280;3229;42.674;23.282;2023-04-09T00:59:55;94819.88;;;11.56;63.61
6393;BME280;3229;42.674;23.282;2023-04-09T01:02:22;94817.31;;;11.56;63.67
6393;BME280;3229;42.674;23.282;2023-04-09T01:04:50;94813.97;;;11.56;63.76
6393;BME280;3229;42.674;23.282;2023-04-09T01:07:21;94810.06;;;11.52;63.57
6393;BME280;3229;42.674;23.282;2023-04-09T01:09:56;94821.66;;;11.56;63.70
6393;BME280;3229;42.674;23.282;2023-04-09T01:12:35;94826.91;;;11.54;63.85
6393;BME280;3229;42.674;23.282;2023-04-09T01:15:07;94818.69;;;11.51;63.99
6393;BME280;3229;42.674;23.282;2023-04-09T01:17:40;94823.81;;;11.51;63.62
6393;BME280;3229;42.674;23.282;2023-04-09T01:20:12;94828.00;;;11.52;63.85
6393;BME280;3229;42.674;23.282;2023-04-09T01:22:48;94821.41;;;11.49;64.05
6393;BME280;3229;42.674;23.282;2023-04-09T01:25:42;94828.78;;;11.52;63.97
6393;BME280;3229;42.674;23.282;2023-04-09T01:28:20;94832.19;;;11.53;63.98
6393;BME280;3229;42.674;23.282;2023-04-09T01:30:49;94816.72;;;11.45;64.03
6393;BME280;3229;42.674;23.282;2023-04-09T01:33:19;94822.22;;;11.50;63.84
6393;BME280;3229;42.674;23.282;2023-04-09T01:35:47;94830.44;;;11.53;64.13
6393;BME280;3229;42.674;23.282;2023-04-09T01:38:17;94817.38;;;11.47;63.93
6393;BME280;3229;42.674;23.282;2023-04-09T01:40:45;94825.31;;;11.53;64.12
6393;BME280;3229;42.674;23.282;2023-04-09T01:43:12;94823.16;;;11.49;64.14
6393;BME280;3229;42.674;23.282;2023-04-09T01:45:42;94824.50;;;11.53;64.01
6393;BME280;3229;42.674;23.282;2023-04-09T01:48:10;94817.91;;;11.50;63.83
6393;BME280;3229;42.674;23.282;2023-04-09T01:50:38;94822.22;;;11.50;64.08
6393;BME280;3229;42.674;23.282;2023-04-09T01:53:05;94821.94;;;11.53;64.05
6393;BME280;3229;42.674;23.282;2023-04-09T01:55:32;94827.19;;;11.51;64.02
6393;BME280;3229;42.674;23.282;2023-04-09T01:57:59;94822.88;;;11.52;63.69
6393;BME280;3229;42.674;23.282;2023-04-09T02:00:31;94822.34;;;11.48;64.17
6393;BME280;3229;42.674;23.282;2023-04-09T02:03:06;94823.97;;;11.49;64.06
6393;BME280;3229;42.674;23.282;2023-04-09T02:05:36;94818.84;;;11.49;63.75
6393;BME280;3229;42.674;23.282;2023-04-09T02:08:06;94819.78;;;11.48;64.07
6393;BME280;3229;42.674;23.282;2023-04-09T02:10:35;94825.84;;;11.47;64.15
6393;BME280;3229;42.674;23.282;2023-04-09T02:13:04;94832.88;;;11.45;64.11
6393;BME280;3229;42.674;23.282;2023-04-09T02:15:32;94831.41;;;11.43;64.07
6393;BME280;3229;42.674;23.282;2023-04-09T02:18:02;94826.44;;;11.41;64.14
6393;BME280;3229;42.674;23.282;2023-04-09T02:20:28;94825.75;;;11.39;64.33
6393;BME280;3229;42.674;23.282;2023-04-09T02:22:55;94822.69;;;11.36;64.16
6393;BME280;3229;42.674;23.282;2023-04-09T02:25:22;94827.66;;;11.37;64.24
6393;BME280;3229;42.674;23.282;2023-04-09T02:27:50;94824.41;;;11.35;64.25
6393;BME280;3229;42.674;23.282;2023-04-09T02:30:17;94828.88;;;11.33;64.19
6393;BME280;3229;42.674;23.282;2023-04-09T02:32:43;94823.06;;;11.31;64.24
6393;BME280;3229;42.674;23.282;2023-04-09T02:35:12;94829.13;;;11.30;64.34
6393;BME280;3229;42.674;23.282;2023-04-09T02:37:39;94824.31;;;11.27;64.32
6393;BME280;3229;42.674;23.282;2023-04-09T02:40:07;94824.59;;;11.24;64.55
6393;BME280;3229;42.674;23.282;2023-04-09T02:42:34;94822.16;;;11.22;64.29
6393;BME280;3229;42.674;23.282;2023-04-09T02:45:00;94819.72;;;11.21;64.43
6393;BME280;3229;42.674;23.282;2023-04-09T02:47:27;94822.44;;;11.19;64.52
6393;BME280;3229;42.674;23.282;2023-04-09T02:49:54;94816.63;;;11.17;64.45
6393;BME280;3229;42.674;23.282;2023-04-09T02:52:22;94802.78;;;11.10;64.49
6393;BME280;3229;42.674;23.282;2023-04-09T02:54:51;94808.41;;;11.14;64.42
6393;BME280;3229;42.674;23.282;2023-04-09T02:57:18;94799.56;;;11.08;64.41
6393;BME280;3229;42.674;23.282;2023-04-09T02:59:45;94801.31;;;11.08;64.32
6393;BME280;3229;42.674;23.282;2023-04-09T03:02:12;94810.47;;;11.10;64.55
6393;BME280;3229;42.674;23.282;2023-04-09T03:04:39;94807.22;;;11.08;64.50
6393;BME280;3229;42.674;23.282;2023-04-09T03:07:06;94806.56;;;11.06;64.69
6393;BME280;3229;42.674;23.282;2023-04-09T03:09:34;94802.13;;;10.98;64.63
6393;BME280;3229;42.674;23.282;2023-04-09T03:12:01;94806.03;;;11.02;64.78
6393;BME280;3229;42.674;23.282;2023-04-09T03:14:27;94790.72;;;10.93;64.56
6393;BME280;3229;42.674;23.282;2023-04-09T03:16:54;94804.69;;;10.98;64.76
6393;BME280;3229;42.674;23.282;2023-04-09T03:19:21;94806.56;;;10.96;64.79
6393;BME280;3229;42.674;23.282;2023-04-09T03:21:48;94814.53;;;10.93;64.76
6393;BME280;3229;42.674;23.282;2023-04-09T03:24:15;94807.13;;;10.90;64.72
6393;BME280;3229;42.674;23.282;2023-04-09T03:26:44;94806.47;;;10.88;64.79
6393;BME280;3229;42.674;23.282;2023-04-09T03:29:11;94802.28;;;10.87;64.83
6393;BME280;3229;42.674;23.282;2023-04-09T03:31:37;94806.59;;;10.87;64.92
6393;BME280;3229;42.674;23.282;2023-04-09T03:34:04;94805.13;;;10.84;64.73
6393;BME280;3229;42.674;23.282;2023-04-09T03:36:31;94802.69;;;10.83;64.81
6393;BME280;3229;42.674;23.282;2023-04-09T03:38:58;94799.47;;;10.80;64.90
6393;BME280;3229;42.674;23.282;2023-04-09T03:41:26;94808.91;;;10.80;64.84
6393;BME280;3229;42.674;23.282;2023-04-09T03:43:54;94775.66;;;10.61;64.96
6393;BME280;3229;42.674;23.282;2023-04-09T03:46:21;94800.13;;;10.73;65.04
6393;BME280;3229;42.674;23.282;2023-04-09T03:48:49;94811.31;;;10.72;64.87
6393;BME280;3229;42.674;23.282;2023-04-09T03:51:16;94811.31;;;10.72;65.04
6393;BME280;3229;42.674;23.282;2023-04-09T03:53:43;94814.69;;;10.72;65.15
6393;BME280;3229;42.674;23.282;2023-04-09T03:56:10;94819.94;;;10.71;64.93
6393;BME280;3229;42.674;23.282;2023-04-09T03:58:36;94825.88;;;10.71;65.12
6393;BME280;3229;42.674;23.282;2023-04-09T04:01:05;94815.91;;;10.68;65.24
6393;BME280;3229;42.674;23.282;2023-04-09T04:03:32;94824.38;;;10.69;65.22
6393;BME280;3229;42.674;23.282;2023-04-09T04:06:00;94826.94;;;10.69;65.29
6393;BME280;3229;42.674;23.282;2023-04-09T04:08:27;94825.44;;;10.66;65.49
6393;BME280;3229;42.674;23.282;2023-04-09T04:10:54;94828.53;;;10.70;65.15
6393;BME280;3229;42.674;23.282;2023-04-09T04:13:21;94823.31;;;10.71;65.33
6393;BME280;3229;42.674;23.282;2023-04-09T04:15:48;94824.13;;;10.72;65.17
6393;BME280;3229;42.674;23.282;2023-04-09T04:18:16;94822.22;;;10.74;65.14
6393;BME280;3229;42.674;23.282;2023-04-09T04:20:43;94820.34;;;10.76;65.04
6393;BME280;3229;42.674;23.282;2023-04-09T04:23:09;94826.00;;;10.79;65.07
6393;BME280;3229;42.674;23.282;2023-04-09T04:25:39;94825.16;;;10.79;65.04
6393;BME280;3229;42.674;23.282;2023-04-09T04:28:06;94818.72;;;10.85;64.81
6393;BME280;3229;42.674;23.282;2023-04-09T04:30:33;94819.13;;;10.90;65.04
6393;BME280;3229;42.674;23.282;2023-04-09T04:33:00;94826.38;;;10.94;64.80
6393;BME280;3229;42.674;23.282;2023-04-09T04:35:28;94826.78;;;10.99;64.45
6393;BME280;3229;42.674;23.282;2023-04-09T04:37:55;94825.41;;;11.05;64.89
6393;BME280;3229;42.674;23.282;2023-04-09T04:40:22;94826.34;;;11.14;64.59
6393;BME280;3229;42.674;23.282;2023-04-09T04:42:49;94827.69;;;11.18;64.29
6393;BME280;3229;42.674;23.282;2023-04-09T04:45:16;94831.03;;;11.28;64.36
6393;BME280;3229;42.674;23.282;2023-04-09T04:47:42;94831.00;;;11.38;64.21
6393;BME280;3229;42.674;23.282;2023-04-09T04:50:09;94834.34;;;11.48;64.07
6393;BME280;3229;42.674;23.282;2023-04-09T04:52:37;94831.63;;;11.59;63.87
6393;BME280;3229;42.674;23.282;2023-04-09T04:55:05;94829.53;;;11.72;63.58
6393;BME280;3229;42.674;23.282;2023-04-09T04:57:32;94813.47;;;11.80;63.54
6393;BME280;3229;42.674;23.282;2023-04-09T04:59:59;94826.56;;;12.04;63.25
6393;BME280;3229;42.674;23.282;2023-04-09T05:02:25;94826.75;;;12.21;62.56
6393;BME280;3229;42.674;23.282;2023-04-09T05:04:52;94838.53;;;12.41;62.63
6393;BME280;3229;42.674;23.282;2023-04-09T05:07:19;94829.06;;;12.60;62.22
6393;BME280;3229;42.674;23.282;2023-04-09T05:09:47;94830.53;;;12.80;61.79
6393;BME280;3229;42.674;23.282;2023-04-09T05:12:14;94828.75;;;12.98;61.37
6393;BME280;3229;42.674;23.282;2023-04-09T05:14:42;94830.56;;;13.24;60.91
6393;BME280;3229;42.674;23.282;2023-04-09T05:17:09;94828.47;;;13.45;60.33
6393;BME280;3229;42.674;23.282;2023-04-09T05:19:36;94820.69;;;13.63;60.25
6393;BME280;3229;42.674;23.282;2023-04-09T05:22:02;94827.72;;;13.87;59.71
6393;BME280;3229;42.674;23.282;2023-04-09T05:24:29;94836.63;;;14.09;59.44
6393;BME280;3229;42.674;23.282;2023-04-09T05:26:57;94831.69;;;14.24;59.46
6393;BME280;3229;42.674;23.282;2023-04-09T05:29:25;94838.16;;;14.36;59.08
6393;BME280;3229;42.674;23.282;2023-04-09T05:31:52;94826.78;;;14.47;58.89
6393;BME280;3229;42.674;23.282;2023-04-09T05:34:19;94826.66;;;14.57;58.68
6393;BME280;3229;42.674;23.282;2023-04-09T05:36:46;94830.03;;;14.65;58.63
6393;BME280;3229;42.674;23.282;2023-04-09T05:39:13;94824.91;;;14.73;58.43
6393;BME280;3229;42.674;23.282;2023-04-09T05:41:39;94829.41;;;14.79;58.20
6393;BME280;3229;42.674;23.282;2023-04-09T05:44:10;94826.50;;;14.83;58.12
6393;BME280;3229;42.674;23.282;2023-04-09T05:46:36;94842.91;;;14.98;57.95
6393;BME280;3229;42.674;23.282;2023-04-09T05:49:03;94834.72;;;15.02;57.60
6393;BME280;3229;42.674;23.282;2023-04-09T05:51:30;94833.09;;;15.18;57.42
6393;BME280;3229;42.674;23.282;2023-04-09T05:53:57;94835.50;;;15.44;57.17
6393;BME280;3229;42.674;23.282;2023-04-09T05:56:24;94832.41;;;15.73;56.84
6393;BME280;3229;42.674;23.282;2023-04-09T05:58:52;94829.69;;;16.05;56.43
6393;BME280;3229;42.674;23.282;2023-04-09T06:01:20;94838.22;;;16.45;56.10
6393;BME280;3229;42.674;23.282;2023-04-09T06:03:47;94833.00;;;16.85;55.73
6393;BME280;3229;42.674;23.282;2023-04-09T06:06:14;94836.03;;;17.26;55.43
6393;BME280;3229;42.674;23.282;2023-04-09T06:08:41;94839.84;;;17.68;54.97
6393;BME280;3229;42.674;23.282;2023-04-09T06:11:09;94826.06;;;18.05;54.42
6393;BME280;3229;42.674;23.282;2023-04-09T06:13:36;94837.03;;;18.43;54.17
6393;BME280;3229;42.674;23.282;2023-04-09T06:16:04;94839.03;;;18.77;53.65
6393;BME280;3229;42.674;23.282;2023-04-09T06:18:32;94827.41;;;19.16;52.88
6393;BME280;3229;42.674;23.282;2023-04-09T06:21:02;94847.22;;;19.73;52.52
6393;BME280;3229;42.674;23.282;2023-04-09T06:23:29;94844.69;;;20.21;51.88
6393;BME280;3229;42.674;23.282;2023-04-09T06:25:56;94843.47;;;20.65;51.26
6393;BME280;3229;42.674;23.282;2023-04-09T06:28:23;94845.53;;;21.03;50.67
6393;BME280;3229;42.674;23.282;2023-04-09T06:30:50;94842.38;;;21.41;50.00
6393;BME280;3229;42.674;23.282;2023-04-09T06:33:18;94845.50;;;21.96;49.35
6393;BME280;3229;42.674;23.282;2023-04-09T06:35:46;94820.34;;;22.41;48.96
6393;BME280;3229;42.674;23.282;2023-04-09T06:38:13;94810.41;;;22.95;48.13
6393;BME280;3229;42.674;23.282;2023-04-09T06:40:40;94813.63;;;23.47;47.17
6393;BME280;3229;42.674;23.282;2023-04-09T06:43:07;94859.84;;;24.26;46.61
6393;BME280;3229;42.674;23.282;2023-04-09T06:45:34;94862.06;;;24.78;45.96
6393;BME280;3229;42.674;23.282;2023-04-09T06:48:02;94856.66;;;25.21;45.47
6393;BME280;3229;42.674;23.282;2023-04-09T06:50:29;94826.31;;;25.44;44.92
6393;BME280;3229;42.674;23.282;2023-04-09T06:52:57;94856.19;;;25.90;44.42
6393;BME280;3229;42.674;23.282;2023-04-09T06:55:24;94864.72;;;26.09;43.72
6393;BME280;3229;42.674;23.282;2023-04-09T06:57:51;94862.66;;;26.22;43.53
6393;BME280;3229;42.674;23.282;2023-04-09T07:00:18;94826.19;;;26.21;42.98
6393;BME280;3229;42.674;23.282;2023-04-09T07:02:47;94869.09;;;26.55;42.51
6393;BME280;3229;42.674;23.282;2023-04-09T07:05:14;94847.69;;;26.75;42.42
6393;BME280;3229;42.674;23.282;2023-04-09T07:07:40;94859.31;;;27.08;41.59
6393;BME280;3229;42.674;23.282;2023-04-09T07:10:09;94863.03;;;27.40;41.45
6393;BME280;3229;42.674;23.282;2023-04-09T07:12:36;94872.88;;;27.67;41.45
6393;BME280;3229;42.674;23.282;2023-04-09T07:15:05;94862.97;;;27.86;40.55
6393;BME280;3229;42.674;23.282;2023-04-09T07:17:32;94861.84;;;27.82;40.52
6393;BME280;3229;42.674;23.282;2023-04-09T07:19:59;94863.97;;;27.85;40.57
6393;BME280;3229;42.674;23.282;2023-04-09T07:22:28;94864.28;;;27.71;41.06
6393;BME280;3229;42.674;23.282;2023-04-09T07:24:55;94871.63;;;27.52;40.96
6393;BME280;3229;42.674;23.282;2023-04-09T07:27:24;94863.03;;;27.40;41.28
6393;BME280;3229;42.674;23.282;2023-04-09T07:29:53;94831.88;;;27.32;40.61
6393;BME280;3229;42.674;23.282;2023-04-09T07:32:20;94872.97;;;27.89;39.68
6393;BME280;3229;42.674;23.282;2023-04-09T07:34:46;94869.81;;;28.25;39.17
6393;BME280;3229;42.674;23.282;2023-04-09T07:37:13;94874.19;;;28.59;39.10
6393;BME280;3229;42.674;23.282;2023-04-09T07:39:40;94861.00;;;28.81;38.84
6393;BME280;3229;42.674;23.282;2023-04-09T07:42:07;94868.03;;;28.97;38.76
6393;BME280;3229;42.674;23.282;2023-04-09T07:44:36;94860.81;;;29.14;37.97
6393;BME280;3229;42.674;23.282;2023-04-09T07:47:03;94873.66;;;29.33;37.86
6393;BME280;3229;42.674;23.282;2023-04-09T07:49:31;94869.66;;;29.57;37.46
6393;BME280;3229;42.674;23.282;2023-04-09T07:51:58;94859.75;;;29.74;37.15
6393;BME280;3229;42.674;23.282;2023-04-09T07:54:25;94875.53;;;30.07;37.23
6393;BME280;3229;42.674;23.282;2023-04-09T07:56:53;94888.59;;;30.29;36.98
6393;BME280;3229;42.674;23.282;2023-04-09T07:59:21;94877.38;;;30.54;36.29
6393;BME280;3229;42.674;23.282;2023-04-09T08:01:49;94870.34;;;30.75;36.27
6393;BME280;3229;42.674;23.282;2023-04-09T08:04:16;94857.94;;;30.80;35.99
6393;BME280;3229;42.674;23.282;2023-04-09T08:06:43;94877.56;;;31.05;35.93
6393;BME280;3229;42.674;23.282;2023-04-09T08:09:14;94882.34;;;31.18;35.74
6393;BME280;3229;42.674;23.282;2023-04-09T08:11:40;94891.09;;;31.29;35.62
6393;BME280;3229;42.674;23.282;2023-04-09T08:14:10;94880.50;;;31.39;35.51
6393;BME280;3229;42.674;23.282;2023-04-09T08:16:38;94890.03;;;31.45;35.21
6393;BME280;3229;42.674;23.282;2023-04-09T08:19:07;94872.06;;;31.42;35.39
6393;BME280;3229;42.674;23.282;2023-04-09T08:21:36;94878.69;;;31.50;35.41
6393;BME280;3229;42.674;23.282;2023-04-09T08:24:03;94877.63;;;31.51;35.04
6393;BME280;3229;42.674;23.282;2023-04-09T08:26:31;94886.59;;;31.50;35.11
6393;BME280;3229;42.674;23.282;2023-04-09T08:28:58;94881.84;;;31.41;35.20
6393;BME280;3229;42.674;23.282;2023-04-09T08:31:24;94872.59;;;31.29;35.10
6393;BME280;3229;42.674;23.282;2023-04-09T08:33:51;94876.78;;;31.19;35.47
6393;BME280;3229;42.674;23.282;2023-04-09T08:36:19;94880.72;;;31.07;35.27
6393;BME280;3229;42.674;23.282;2023-04-09T08:38:47;94890.19;;;30.87;34.80
6393;BME280;3229;42.674;23.282;2023-04-09T08:41:17;94891.47;;;30.75;34.94
6393;BME280;3229;42.674;23.282;2023-04-09T08:43:46;94882.13;;;30.57;35.17
6393;BME280;3229;42.674;23.282;2023-04-09T08:46:13;94876.78;;;30.41;34.46
6393;BME280;3229;42.674;23.282;2023-04-09T08:48:42;94867.19;;;30.25;34.83
6393;BME280;3229;42.674;23.282;2023-04-09T08:51:12;94875.81;;;30.10;34.41
6393;BME280;3229;42.674;23.282;2023-04-09T08:53:42;94873.88;;;29.95;34.28
6393;BME280;3229;42.674;23.282;2023-04-09T08:56:10;94863.94;;;29.70;33.95
6393;BME280;3229;42.674;23.282;2023-04-09T08:58:41;94866.50;;;29.60;33.90
6393;BME280;3229;42.674;23.282;2023-04-09T09:01:18;94888.75;;;29.42;33.84
6393;BME280;3229;42.674;23.282;2023-04-09T09:03:54;94874.84;;;29.20;34.21
6393;BME280;3229;42.674;23.282;2023-04-09T09:06:22;94860.84;;;28.92;34.24
6393;BME280;3229;42.674;23.282;2023-04-09T09:09:01;94876.69;;;28.70;34.05
6393;BME280;3229;42.674;23.282;2023-04-09T09:11:28;94863.00;;;28.46;34.34
6393;BME280;3229;42.674;23.282;2023-04-09T09:14:00;94871.38;;;28.26;34.21
6393;BME280;3229;42.674;23.282;2023-04-09T09:16:27;94865.38;;;28.09;33.75
6393;BME280;3229;42.674;23.282;2023-04-09T09:18:54;94858.81;;;27.90;33.92
6393;BME280;3229;42.674;23.282;2023-04-09T09:21:22;94857.69;;;27.69;33.81
6393;BME280;3229;42.674;23.282;2023-04-09T09:23:49;94858.75;;;27.51;33.66
6393;BME280;3229;42.674;23.282;2023-04-09T09:26:19;94854.53;;;27.33;34.01
6393;BME280;3229;42.674;23.282;2023-04-09T09:28:47;94853.25;;;27.07;33.99
6393;BME280;3229;42.674;23.282;2023-04-09T09:31:16;94855.28;;;26.88;34.19
6393;BME280;3229;42.674;23.282;2023-04-09T09:33:43;94838.28;;;26.62;34.16
6393;BME280;3229;42.674;23.282;2023-04-09T09:36:11;94852.22;;;26.51;34.07
6393;BME280;3229;42.674;23.282;2023-04-09T09:38:51;94847.25;;;26.26;33.78
6393;BME280;3229;42.674;23.282;2023-04-09T09:41:20;94855.94;;;26.03;34.32
6393;BME280;3229;42.674;23.282;2023-04-09T09:43:47;94834.22;;;25.79;34.14
6393;BME280;3229;42.674;23.282;2023-04-09T09:46:14;94833.38;;;25.55;34.57
6393;BME280;3229;42.674;23.282;2023-04-09T09:48:42;94840.78;;;25.35;34.57
6393;BME280;3229;42.674;23.282;2023-04-09T09:51:11;94801.94;;;24.90;34.50
6393;BME280;3229;42.674;23.282;2023-04-09T09:53:42;94842.13;;;24.95;34.78
6393;BME280;3229;42.674;23.282;2023-04-09T09:56:13;94841.38;;;24.76;35.07
6393;BME280;3229;42.674;23.282;2023-04-09T09:58:44;94840.03;;;24.56;35.08
6393;BME280;3229;42.674;23.282;2023-04-09T10:01:16;94840.28;;;24.36;35.00
6393;BME280;3229;42.674;23.282;2023-04-09T10:03:44;94832.22;;;24.19;34.81
6393;BME280;3229;42.674;23.282;2023-04-09T10:06:12;94831.22;;;24.01;35.11
6393;BME280;3229;42.674;23.282;2023-04-09T10:08:41;94827.56;;;23.84;35.37
6393;BME280;3229;42.674;23.282;2023-04-09T10:11:08;94827.91;;;23.69;35.32
6393;BME280;3229;42.674;23.282;2023-04-09T10:13:39;94829.81;;;23.56;35.39
6393;BME280;3229;42.674;23.282;2023-04-09T10:16:09;94839.50;;;23.48;35.22
6393;BME280;3229;42.674;23.282;2023-04-09T10:18:37;94825.13;;;23.39;35.35
6393;BME280;3229;42.674;23.282;2023-04-09T10:21:12;94818.16;;;23.33;35.31
6393;BME280;3229;42.674;23.282;2023-04-09T10:23:41;94814.22;;;23.24;35.54
6393;BME280;3229;42.674;23.282;2023-04-09T10:26:09;94816.94;;;23.11;35.50
6393;BME280;3229;42.674;23.282;2023-04-09T10:28:36;94830.25;;;22.96;35.44
6393;BME280;3229;42.674;23.282;2023-04-09T10:31:04;94827.13;;;22.81;35.90
6393;BME280;3229;42.674;23.282;2023-04-09T10:33:35;94817.19;;;22.64;35.68
6393;BME280;3229;42.674;23.282;2023-04-09T10:36:05;94830.09;;;22.52;35.92
6393;BME280;3229;42.674;23.282;2023-04-09T10:38:36;94815.69;;;22.50;35.98
6393;BME280;3229;42.674;23.282;2023-04-09T10:41:08;94797.22;;;22.45;36.00
6393;BME280;3229;42.674;23.282;2023-04-09T10:43:37;94803.00;;;22.53;36.12
6393;BME280;3229;42.674;23.282;2023-04-09T10:46:04;94803.38;;;22.57;35.98
6393;BME280;3229;42.674;23.282;2023-04-09T10:48:35;94816.41;;;22.64;35.90
6393;BME280;3229;42.674;23.282;2023-04-09T10:51:02;94807.16;;;22.68;35.84
6393;BME280;3229;42.674;23.282;2023-04-09T10:53:31;94790.13;;;22.65;35.73
6393;BME280;3229;42.674;23.282;2023-04-09T10:55:58;94791.28;;;22.69;35.79
6393;BME280;3229;42.674;23.282;2023-04-09T10:58:26;94768.47;;;22.65;35.76
6393;BME280;3229;42.674;23.282;2023-04-09T11:00:53;94796.00;;;22.86;35.77
6393;BME280;3229;42.674;23.282;2023-04-09T11:03:25;94790.75;;;22.92;35.71
6393;BME280;3229;42.674;23.282;2023-04-09T11:05:58;94786.38;;;22.93;35.49
6393;BME280;3229;42.674;23.282;2023-04-09T11:08:27;94755.56;;;22.76;35.92
6393;BME280;3229;42.674;23.282;2023-04-09T11:10:55;94774.47;;;22.97;35.64
6393;BME280;3229;42.674;23.282;2023-04-09T11:13:23;94776.66;;;23.00;35.63
6393;BME280;3229;42.674;23.282;2023-04-09T11:15:50;94793.72;;;23.02;35.55
6393;BME280;3229;42.674;23.282;2023-04-09T11:18:20;94773.88;;;23.01;35.82
6393;BME280;3229;42.674;23.282;2023-04-09T11:20:48;94778.06;;;23.02;35.55
6393;BME280;3229;42.674;23.282;2023-04-09T11:23:16;94780.66;;;23.02;35.58
6393;BME280;3229;42.674;23.282;2023-04-09T11:25:47;94780.72;;;22.96;35.72
6393;BME280;3229;42.674;23.282;2023-04-09T11:28:14;94788.75;;;22.88;35.75
6393;BME280;3229;42.674;23.282;2023-04-09T11:30:41;94780.03;;;22.75;35.99
6393;BME280;3229;42.674;23.282;2023-04-09T11:33:08;94784.31;;;22.63;36.04
6393;BME280;3229;42.674;23.282;2023-04-09T11:35:35;94781.78;;;22.50;36.34
6393;BME280;3229;42.674;23.282;2023-04-09T11:38:05;94779.44;;;22.35;36.24
6393;BME280;3229;42.674;23.282;2023-04-09T11:40:34;94771.91;;;22.20;36.41
6393;BME280;3229;42.674;23.282;2023-04-09T11:43:00;94755.38;;;21.95;36.64
6393;BME280;3229;42.674;23.282;2023-04-09T11:45:29;94776.59;;;21.98;36.61
6393;BME280;3229;42.674;23.282;2023-04-09T11:47:57;94771.38;;;21.92;36.77
6393;BME280;3229;42.674;23.282;2023-04-09T11:50:24;94775.41;;;21.88;36.74
6393;BME280;3229;42.674;23.282;2023-04-09T11:52:51;94781.03;;;21.85;36.92
6393;BME280;3229;42.674;23.282;2023-04-09T11:55:25;94766.44;;;21.77;36.86
6393;BME280;3229;42.674;23.282;2023-04-09T11:57:56;94770.47;;;21.66;37.20
6393;BME280;3229;42.674;23.282;2023-04-09T12:00:25;94745.69;;;21.37;37.42
6393;BME280;3229;42.674;23.282;2023-04-09T12:02:58;94762.94;;;21.38;37.41
6393;BME280;3229;42.674;23.282;2023-04-09T12:05:29;94742.53;;;21.09;37.50
6393;BME280;3229;42.674;23.282;2023-04-09T12:07:57;94754.91;;;21.13;37.86
6393;BME280;3229;42.674;23.282;2023-04-09T12:10:26;94754.31;;;21.04;37.83
6393;BME280;3229;42.674;23.282;2023-04-09T12:13:00;94752.31;;;20.87;37.99
6393;BME280;3229;42.674;23.282;2023-04-09T12:15:30;94764.53;;;20.86;38.00
6393;BME280;3229;42.674;23.282;2023-04-09T12:17:57;94754.50;;;20.76;38.22
6393;BME280;3229;42.674;23.282;2023-04-09T12:20:26;94752.72;;;20.77;38.35
6393;BME280;3229;42.674;23.282;2023-04-09T12:22:53;94748.53;;;20.83;38.43
6393;BME280;3229;42.674;23.282;2023-04-09T12:25:20;94738.50;;;20.79;38.42
6393;BME280;3229;42.674;23.282;2023-04-09T12:27:47;94755.13;;;20.98;38.26
6393;BME280;3229;42.674;23.282;2023-04-09T12:30:15;94738.50;;;21.06;38.25
6393;BME280;3229;42.674;23.282;2023-04-09T12:32:42;94736.69;;;21.20;38.15
6393;BME280;3229;42.674;23.282;2023-04-09T12:35:10;94739.69;;;21.37;38.06
6393;BME280;3229;42.674;23.282;2023-04-09T12:37:37;94723.88;;;21.45;37.81
6393;BME280;3229;42.674;23.282;2023-04-09T12:40:05;94739.66;;;21.63;37.76
6393;BME280;3229;42.674;23.282;2023-04-09T12:42:32;94733.22;;;21.72;37.60
6393;BME280;3229;42.674;23.282;2023-04-09T12:44:59;94742.41;;;21.75;37.68
6393;BME280;3229;42.674;23.282;2023-04-09T12:47:27;94724.00;;;21.76;37.60
6393;BME280;3229;42.674;23.282;2023-04-09T12:49:54;94734.59;;;21.82;37.34
6393;BME280;3229;42.674;23.282;2023-04-09T12:52:21;94731.59;;;21.78;37.64
6393;BME280;3229;42.674;23.282;2023-04-09T12:54:49;94729.22;;;21.70;37.65
6393;BME280;3229;42.674;23.282;2023-04-09T12:57:16;94730.63;;;21.66;37.72
6393;BME280;3229;42.674;23.282;2023-04-09T12:59:42;94730.03;;;21.57;37.79
6393;BME280;3229;42.674;23.282;2023-04-09T13:02:10;94716.84;;;21.45;38.01
6393;BME280;3229;42.674;23.282;2023-04-09T13:04:38;94716.72;;;21.34;38.11
6393;BME280;3229;42.674;23.282;2023-04-09T13:07:05;94710.09;;;21.24;38.09
6393;BME280;3229;42.674;23.282;2023-04-09T13:09:32;94712.09;;;21.16;38.20
6393;BME280;3229;42.674;23.282;2023-04-09T13:12:00;94708.72;;;21.09;38.20
6393;BME280;3229;42.674;23.282;2023-04-09T13:14:27;94700.91;;;21.02;38.23